createdAt,value
2018-12-14T06:02:59.629Z,86.60
2018-12-14T06:05:28.470Z,86.40
2018-12-14T06:07:57.307Z,86.70
2018-12-14T06:10:26.053Z,90.00
2018-12-14T06:12:55.102Z,88.70
2018-12-14T06:15:24.370Z,88.50
2018-12-14T06:17:53.515Z,88.10
2018-12-14T06:20:23.942Z,90.20
2018-12-14T07:52:22.071Z,90.10
2018-12-14T07:54:57.971Z,89.40
2018-12-14T11:34:09.551Z,88.00
2018-12-14T14:58:25.813Z,87.20
2018-12-14T15:00:57.599Z,89.00
2018-12-14T15:03:27.755Z,86.50
2018-12-14T15:05:57.186Z,86.00
2018-12-14T15:08:26.005Z,85.80
2018-12-14T15:10:54.894Z,87.30
2018-12-14T15:13:25.754Z,87.60
2018-12-14T15:15:54.735Z,85.10
2018-12-14T15:18:23.569Z,84.60
2018-12-14T15:20:52.513Z,86.60
2018-12-14T15:23:21.471Z,83.80
2018-12-14T15:25:50.286Z,83.40
2018-12-14T15:28:31.578Z,84.80
2018-12-14T15:31:36.456Z,86.70
2018-12-14T15:34:27.483Z,86.50
2018-12-14T15:37:18.932Z,85.20
2018-12-14T15:40:15.723Z,84.70
2018-12-14T15:49:25.419Z,85.20
2018-12-14T15:55:26.485Z,84.00
2018-12-14T16:01:02.497Z,87.40
2018-12-14T16:03:31.234Z,86.10
2018-12-14T16:06:00.165Z,86.80
2018-12-14T16:08:28.915Z,87.20
2018-12-14T16:10:57.972Z,86.10
2018-12-14T16:13:26.794Z,87.60
2018-12-14T16:15:55.591Z,85.70
2018-12-14T16:18:24.468Z,85.50
2018-12-14T16:20:53.467Z,84.60
2018-12-14T16:23:22.583Z,85.20
2018-12-14T16:25:51.747Z,84.50
2018-12-14T16:28:20.548Z,85.00
2018-12-14T16:30:49.553Z,86.00
2018-12-14T16:33:18.307Z,84.50
2018-12-14T16:35:47.286Z,83.60
2018-12-14T16:38:15.941Z,81.90
2018-12-14T16:40:44.743Z,83.10
2018-12-14T16:43:13.557Z,85.80
2018-12-14T16:45:42.529Z,85.30
2018-12-14T16:48:11.326Z,87.60
2018-12-14T16:50:40.353Z,87.00
2018-12-14T16:53:09.252Z,85.50
2018-12-14T16:55:38.305Z,84.40
2018-12-14T16:58:07.113Z,83.20
2018-12-14T17:00:35.953Z,85.40
2018-12-14T17:03:04.949Z,85.70
2018-12-14T17:05:34.110Z,85.40
2018-12-14T17:08:03.096Z,82.40
2018-12-14T17:10:32.028Z,81.50
2018-12-14T17:13:00.770Z,80.40
2018-12-14T17:15:33.391Z,82.40
2018-12-14T17:18:01.403Z,82.90
2018-12-14T17:20:30.177Z,84.30
2018-12-14T17:23:01.195Z,84.80
2018-12-14T17:25:32.388Z,84.40
2018-12-14T17:28:02.728Z,82.90
2018-12-14T17:30:35.469Z,82.50
2018-12-14T17:33:04.405Z,85.00
2018-12-14T17:35:42.806Z,82.70
2018-12-14T17:38:25.015Z,82.00
2018-12-14T17:41:01.952Z,81.60
2018-12-14T17:43:31.727Z,85.10
2018-12-14T17:46:00.740Z,85.70
2018-12-14T17:48:29.681Z,85.40
2018-12-14T17:50:59.760Z,84.90
2018-12-14T17:53:28.718Z,84.00
2018-12-14T17:55:57.657Z,83.40
2018-12-14T17:58:26.628Z,83.80
2018-12-14T18:00:58.643Z,85.40
2018-12-14T18:03:39.339Z,84.80
2018-12-14T18:06:08.369Z,86.20
2018-12-14T18:08:44.070Z,84.00
2018-12-14T18:11:20.694Z,85.90
2018-12-14T18:13:49.983Z,84.20
2018-12-14T18:16:19.229Z,82.70
2018-12-14T18:18:48.280Z,81.80
2018-12-14T18:21:17.401Z,83.30
2018-12-14T18:23:46.623Z,83.00
2018-12-14T18:26:15.440Z,84.10
2018-12-14T18:28:44.400Z,85.40
2018-12-14T18:31:13.358Z,84.50
2018-12-14T18:33:42.868Z,81.10
2018-12-14T18:36:12.005Z,85.50
2018-12-14T18:38:41.289Z,81.90
2018-12-14T18:41:10.468Z,83.00
2018-12-14T18:43:41.284Z,84.90
2018-12-14T18:46:11.210Z,87.40
2018-12-14T18:48:45.541Z,89.40
2018-12-14T18:51:14.879Z,86.90
2018-12-14T18:53:47.938Z,85.50
2018-12-14T18:56:19.467Z,85.00
2018-12-14T18:59:04.689Z,84.30
2018-12-14T19:01:35.094Z,82.00
2018-12-14T19:04:06.178Z,83.40
2018-12-14T19:06:37.633Z,82.00
2018-12-14T19:09:07.442Z,86.50
2018-12-14T19:11:38.930Z,84.50
2018-12-14T19:14:07.971Z,83.30
2018-12-14T19:16:36.980Z,86.20
2018-12-14T19:19:05.796Z,85.10
2018-12-14T19:21:34.951Z,82.20
2018-12-14T19:24:03.888Z,84.00
2018-12-14T19:26:32.756Z,87.40
2018-12-14T19:29:02.172Z,85.40
2018-12-14T19:31:31.960Z,86.60
2018-12-14T19:34:01.005Z,86.20
2018-12-14T19:36:29.926Z,85.50
2018-12-14T19:38:59.501Z,84.10
2018-12-14T19:41:29.807Z,84.60
2018-12-14T19:43:58.791Z,83.10
2018-12-14T19:46:27.834Z,83.80
2018-12-14T19:48:56.798Z,81.10
2018-12-14T19:51:25.672Z,79.30
2018-12-14T19:53:54.472Z,81.50
2018-12-14T19:56:23.342Z,79.30
2018-12-14T19:58:52.510Z,80.20
2018-12-14T20:01:21.520Z,81.20
2018-12-14T20:03:50.452Z,80.90
2018-12-14T20:06:19.240Z,83.50
2018-12-14T20:08:48.203Z,84.40
2018-12-14T20:11:17.419Z,83.70
2018-12-14T20:13:46.341Z,84.40
2018-12-14T20:16:17.271Z,85.00
2018-12-14T20:18:46.085Z,84.50
2018-12-14T20:21:15.513Z,83.50
2018-12-14T20:23:44.531Z,83.80
2018-12-14T20:26:14.426Z,84.20
2018-12-14T20:28:43.614Z,84.50
2018-12-14T20:31:12.446Z,85.00
2018-12-14T20:33:41.371Z,84.90
2018-12-14T20:36:10.219Z,85.00
2018-12-14T20:38:42.964Z,85.30
2018-12-14T20:41:16.673Z,83.40
2018-12-14T20:43:48.537Z,84.10
2018-12-14T20:46:20.293Z,82.60
2018-12-14T20:48:51.220Z,84.80
2018-12-14T20:51:27.937Z,86.30
2018-12-14T20:53:58.711Z,83.00
2018-12-14T20:56:29.179Z,81.90
2018-12-14T20:58:58.206Z,81.20
2018-12-14T21:01:27.383Z,82.50
2018-12-14T21:03:57.281Z,81.30
2018-12-14T21:06:27.446Z,82.00
2018-12-14T21:08:56.841Z,82.50
2018-12-14T21:11:27.630Z,82.20
2018-12-14T21:13:56.687Z,81.80
2018-12-14T21:16:26.482Z,82.90
2018-12-14T21:18:55.753Z,84.20
2018-12-14T21:21:24.729Z,83.30
2018-12-14T21:23:53.985Z,81.50
2018-12-14T21:26:23.803Z,82.70
2018-12-14T21:28:53.441Z,83.30
2018-12-14T21:31:22.906Z,83.70
2018-12-14T21:33:54.170Z,83.90
2018-12-14T21:36:23.926Z,86.30
2018-12-14T21:38:54.382Z,81.70
2018-12-14T21:41:23.541Z,83.10
2018-12-14T21:43:52.601Z,83.70
2018-12-14T21:46:21.861Z,83.90
2018-12-14T21:48:52.035Z,83.50
2018-12-14T21:51:21.086Z,83.20
2018-12-14T21:53:51.329Z,82.30
2018-12-14T21:56:22.671Z,83.80
2018-12-14T21:58:51.791Z,82.40
2018-12-14T22:01:20.964Z,82.60
2018-12-14T22:03:49.958Z,83.80
2018-12-14T22:06:19.166Z,85.00
2018-12-14T22:08:48.059Z,86.80
2018-12-14T22:11:17.060Z,85.30
2018-12-14T22:13:45.997Z,83.70
2018-12-14T22:16:14.991Z,81.70
2018-12-14T22:18:44.013Z,81.10
2018-12-14T22:21:12.956Z,81.40
2018-12-14T22:23:42.187Z,82.90
2018-12-14T22:26:11.146Z,85.50
2018-12-14T22:28:40.218Z,83.80
2018-12-14T22:31:09.228Z,85.50
2018-12-14T22:33:38.469Z,83.60
2018-12-14T22:36:07.508Z,80.30
2018-12-14T22:38:36.471Z,79.60
2018-12-14T22:41:05.872Z,82.90
2018-12-14T22:43:35.086Z,83.60
2018-12-14T22:46:04.841Z,82.00
2018-12-14T22:48:33.932Z,82.50
2018-12-14T22:51:12.192Z,81.40
2018-12-14T22:53:42.162Z,82.80
2018-12-14T22:56:11.935Z,83.90
2018-12-14T22:58:40.857Z,82.80
2018-12-14T23:01:09.695Z,82.90
2018-12-14T23:03:38.618Z,81.60
2018-12-14T23:06:07.395Z,83.40
2018-12-14T23:08:36.257Z,85.10
2018-12-14T23:11:05.149Z,84.00
2018-12-14T23:13:34.025Z,82.70
2018-12-14T23:16:03.775Z,82.90
2018-12-14T23:18:32.761Z,81.70
2018-12-14T23:21:01.767Z,80.90
2018-12-14T23:23:30.766Z,84.80
2018-12-14T23:25:59.615Z,83.70
2018-12-14T23:28:28.523Z,83.10
2018-12-14T23:30:57.427Z,82.90
2018-12-14T23:33:26.298Z,83.40
2018-12-14T23:35:55.161Z,85.90
2018-12-14T23:38:24.005Z,84.80
2018-12-14T23:40:52.794Z,85.00
2018-12-14T23:43:21.637Z,82.40
2018-12-14T23:45:50.525Z,83.70
2018-12-14T23:48:19.332Z,81.80
2018-12-14T23:50:48.231Z,81.90
2018-12-14T23:53:17.115Z,82.90
2018-12-14T23:55:45.882Z,82.50
2018-12-14T23:58:14.622Z,80.50
